createdAt,value
2023-01-04T00:01:33.060Z,6.41
2023-01-04T00:04:01.072Z,6.35
2023-01-04T00:06:29.133Z,6.32
2023-01-04T00:08:56.799Z,6.31
2023-01-04T00:11:25.667Z,6.28
2023-01-04T00:13:56.812Z,6.25
2023-01-04T00:16:26.269Z,6.17
2023-01-04T00:18:55.524Z,6.11
2023-01-04T00:21:25.674Z,6.06
2023-01-04T00:23:56.118Z,5.97
2023-01-04T00:26:29.872Z,5.91
2023-01-04T00:28:59.426Z,5.86
2023-01-04T00:31:28.443Z,5.77
2023-01-04T00:33:58.016Z,5.74
2023-01-04T00:36:26.534Z,5.71
2023-01-04T00:39:15.469Z,5.65
2023-01-04T00:42:02.724Z,5.58
2023-01-04T00:44:31.792Z,5.59
2023-01-04T00:47:03.677Z,5.61
2023-01-04T00:49:32.189Z,5.58
2023-01-04T00:52:00.153Z,5.60
2023-01-04T00:54:28.088Z,5.63
2023-01-04T00:56:55.871Z,5.62
2023-01-04T00:59:24.084Z,5.65
2023-01-04T01:01:52.425Z,5.65
2023-01-04T01:04:23.691Z,5.67
2023-01-04T01:06:52.381Z,5.67
2023-01-04T01:09:23.801Z,5.63
2023-01-04T01:11:53.172Z,5.63
2023-01-04T01:14:24.738Z,5.61
2023-01-04T01:16:59.922Z,5.64
2023-01-04T01:19:30.046Z,5.65
2023-01-04T01:21:58.798Z,5.59
2023-01-04T01:24:27.391Z,5.61
2023-01-04T01:26:55.912Z,5.63
2023-01-04T01:29:23.859Z,5.63
2023-01-04T01:31:51.614Z,5.67
2023-01-04T01:34:19.452Z,5.70
2023-01-04T01:36:47.165Z,5.76
2023-01-04T01:39:14.864Z,5.83
2023-01-04T01:41:42.995Z,5.87
2023-01-04T01:44:13.766Z,5.92
2023-01-04T01:46:51.194Z,5.97
2023-01-04T01:49:38.618Z,6.05
2023-01-04T01:52:10.132Z,6.11
2023-01-04T01:54:43.041Z,6.19
2023-01-04T01:57:14.916Z,6.23
2023-01-04T01:59:45.317Z,6.27
2023-01-04T02:02:13.413Z,6.30
2023-01-04T02:04:48.359Z,6.29
2023-01-04T02:07:21.764Z,6.29
2023-01-04T02:09:51.202Z,6.31
2023-01-04T02:12:19.250Z,6.30
2023-01-04T02:14:50.103Z,6.31
2023-01-04T02:17:46.671Z,6.32
2023-01-04T02:20:37.287Z,6.34
2023-01-04T02:23:43.739Z,6.37
2023-01-04T02:26:20.399Z,6.36
2023-01-04T02:29:16.811Z,6.37
2023-01-04T02:31:55.832Z,6.37
2023-01-04T02:34:32.839Z,6.35
2023-01-04T02:37:19.909Z,6.37
2023-01-04T02:40:23.750Z,6.37
2023-01-04T02:43:25.428Z,6.40
2023-01-04T02:46:02.583Z,6.39
2023-01-04T02:48:59.792Z,6.40
2023-01-04T02:51:38.481Z,6.40
2023-01-04T02:54:13.912Z,6.39
2023-01-04T02:57:11.996Z,6.41
2023-01-04T02:59:48.475Z,6.45
2023-01-04T03:02:50.624Z,6.39
2023-01-04T03:06:18.010Z,6.42
2023-01-04T03:08:50.895Z,6.44
2023-01-04T03:11:38.070Z,6.46
2023-01-04T03:14:31.668Z,6.41
2023-01-04T03:17:05.666Z,6.44
2023-01-04T03:19:55.407Z,6.36
2023-01-04T03:22:59.638Z,6.34
2023-01-04T03:25:53.069Z,6.36
2023-01-04T03:28:45.219Z,6.39
2023-01-04T03:31:41.780Z,6.40
2023-01-04T03:34:28.665Z,6.41
2023-01-04T03:37:05.959Z,6.42
2023-01-04T03:40:11.487Z,6.46
2023-01-04T03:43:13.922Z,6.47
2023-01-04T03:46:12.890Z,6.49
2023-01-04T03:48:50.740Z,6.52
2023-01-04T03:51:23.960Z,6.48
2023-01-04T03:54:19.033Z,6.46
2023-01-04T03:56:48.952Z,6.40
2023-01-04T03:59:16.821Z,6.43
2023-01-04T04:01:46.412Z,6.42
2023-01-04T04:04:33.020Z,6.37
2023-01-04T04:07:19.278Z,6.36
2023-01-04T04:09:46.991Z,6.31
2023-01-04T04:12:14.625Z,6.30
2023-01-04T04:14:42.345Z,6.25
2023-01-04T04:17:10.062Z,6.20
2023-01-04T04:19:37.710Z,6.14
2023-01-04T04:22:05.435Z,6.13
2023-01-04T04:24:33.151Z,6.11
2023-01-04T04:27:00.957Z,6.11
2023-01-04T04:29:28.648Z,6.08
2023-01-04T04:31:56.469Z,6.05
2023-01-04T04:34:24.086Z,6.02
2023-01-04T04:36:51.738Z,6.00
2023-01-04T04:39:19.638Z,5.98
2023-01-04T04:41:47.356Z,5.95
2023-01-04T04:44:18.180Z,5.95
2023-01-04T04:46:46.735Z,5.92
2023-01-04T04:49:14.918Z,5.92
2023-01-04T04:51:43.745Z,5.88
2023-01-04T04:54:19.459Z,5.86
2023-01-04T04:56:48.313Z,5.85
2023-01-04T04:59:16.477Z,5.81
2023-01-04T05:01:44.262Z,5.84
2023-01-04T05:04:17.519Z,5.83
2023-01-04T05:06:45.979Z,5.81
2023-01-04T05:09:15.215Z,5.78
2023-01-04T05:12:02.329Z,5.76
2023-01-04T05:14:30.210Z,5.71
2023-01-04T05:16:57.911Z,5.69
2023-01-04T05:19:25.607Z,5.70
2023-01-04T05:21:53.236Z,5.68
2023-01-04T05:24:20.905Z,5.64
2023-01-04T05:26:48.517Z,5.62
2023-01-04T05:29:36.097Z,5.59
2023-01-04T05:32:03.897Z,5.58
2023-01-04T05:34:31.634Z,5.63
2023-01-04T05:36:59.293Z,5.65
2023-01-04T05:39:26.951Z,5.63
2023-01-04T05:42:13.085Z,5.65
2023-01-04T05:44:40.759Z,5.66
2023-01-04T05:47:13.054Z,5.67
2023-01-04T05:49:42.606Z,5.65
2023-01-04T05:52:10.653Z,5.63
2023-01-04T05:54:38.294Z,5.62
2023-01-04T05:57:06.311Z,5.58
2023-01-04T05:59:40.876Z,5.58
2023-01-04T06:02:15.618Z,5.57
2023-01-04T06:04:43.427Z,5.51
2023-01-04T06:07:11.135Z,5.49
2023-01-04T06:09:38.795Z,5.51
2023-01-04T06:12:06.733Z,5.51
2023-01-04T06:14:34.525Z,5.52
2023-01-04T06:17:02.290Z,5.50
2023-01-04T06:19:30.054Z,5.49
2023-01-04T06:21:58.236Z,5.41
2023-01-04T06:24:25.884Z,5.41
2023-01-04T06:26:53.688Z,5.42
2023-01-04T06:29:21.356Z,5.46
2023-01-04T06:31:49.127Z,5.47
2023-01-04T06:34:16.858Z,5.50
2023-01-04T06:36:44.838Z,5.49
2023-01-04T06:39:12.536Z,5.54
2023-01-04T06:41:40.339Z,5.57
2023-01-04T06:44:08.184Z,5.61
2023-01-04T06:46:35.978Z,5.61
2023-01-04T06:49:03.779Z,5.60
2023-01-04T06:51:31.429Z,5.64
2023-01-04T06:53:59.158Z,5.67
2023-01-04T06:56:26.864Z,5.68
2023-01-04T06:58:54.489Z,5.70
2023-01-04T07:01:22.265Z,5.67
2023-01-04T07:03:49.952Z,5.66
2023-01-04T07:06:17.715Z,5.65
2023-01-04T07:08:45.424Z,5.63
2023-01-04T07:11:13.106Z,5.62
2023-01-04T07:13:40.743Z,5.64
2023-01-04T07:16:08.501Z,5.68
2023-01-04T07:18:36.219Z,5.72
2023-01-04T07:21:03.910Z,5.74
2023-01-04T07:23:31.606Z,5.78
2023-01-04T07:26:02.919Z,5.79
2023-01-04T07:28:49.551Z,5.82
2023-01-04T07:31:17.412Z,5.86
2023-01-04T07:33:45.195Z,5.93
2023-01-04T07:36:12.885Z,5.99
2023-01-04T07:38:40.620Z,5.97
2023-01-04T07:41:08.310Z,5.97
2023-01-04T07:43:35.977Z,6.02
2023-01-04T07:46:03.725Z,6.04
2023-01-04T07:48:31.538Z,6.07
2023-01-04T07:50:59.288Z,6.13
2023-01-04T07:53:27.068Z,6.26
2023-01-04T07:56:01.635Z,6.36
2023-01-04T07:58:34.052Z,6.46
2023-01-04T08:01:22.073Z,6.50
2023-01-04T08:03:49.984Z,6.56
2023-01-04T08:06:18.623Z,6.62
2023-01-04T08:08:46.263Z,6.62
2023-01-04T08:11:16.973Z,6.68
2023-01-04T08:13:44.870Z,6.77
2023-01-04T08:16:40.111Z,6.83
2023-01-04T08:19:12.877Z,6.84
2023-01-04T08:21:40.768Z,6.92
2023-01-04T08:24:08.548Z,6.96
2023-01-04T08:26:36.303Z,7.02
2023-01-04T08:29:04.026Z,7.00
2023-01-04T08:31:33.765Z,7.00
2023-01-04T08:34:04.852Z,7.00
2023-01-04T08:36:35.512Z,7.08
2023-01-04T08:39:06.119Z,7.12
2023-01-04T08:42:20.401Z,7.17
2023-01-04T08:44:39.627Z,7.17
2023-01-04T08:47:07.496Z,7.19
2023-01-04T08:49:35.216Z,7.21
2023-01-04T08:52:03.081Z,7.22
2023-01-04T08:54:30.869Z,7.24
2023-01-04T08:56:58.621Z,7.25
2023-01-04T08:59:26.423Z,7.28
2023-01-04T09:01:55.760Z,7.32
2023-01-04T09:04:26.224Z,7.32
2023-01-04T09:06:53.996Z,7.33
2023-01-04T09:09:21.762Z,7.32
2023-01-04T09:11:49.577Z,7.34
2023-01-04T09:14:17.284Z,7.40
2023-01-04T09:16:45.187Z,7.44
2023-01-04T09:19:18.044Z,7.47
2023-01-04T09:21:49.321Z,7.49
2023-01-04T09:24:17.079Z,7.44
2023-01-04T09:26:44.825Z,7.48
2023-01-04T09:29:12.762Z,7.46
2023-01-04T09:31:40.536Z,7.47
2023-01-04T09:34:17.397Z,7.48
2023-01-04T09:36:48.930Z,7.50
2023-01-04T09:39:24.829Z,7.49
2023-01-04T09:41:58.594Z,7.52
2023-01-04T09:45:22.502Z,7.49
2023-01-04T09:47:41.975Z,7.50
2023-01-04T09:50:23.185Z,7.54
2023-01-04T09:53:40.227Z,7.59
2023-01-04T09:56:26.825Z,7.67
2023-01-04T09:58:55.889Z,7.71
2023-01-04T10:01:27.304Z,7.73
2023-01-04T10:04:03.222Z,7.70
2023-01-04T10:06:31.602Z,7.66
2023-01-04T10:09:04.197Z,7.70
2023-01-04T10:11:40.568Z,7.74
2023-01-04T10:14:49.635Z,7.73
2023-01-04T10:17:57.446Z,7.80
2023-01-04T10:23:26.839Z,7.95
2023-01-04T10:26:02.158Z,7.92
2023-01-04T10:29:09.073Z,7.89
2023-01-04T10:31:43.572Z,7.90
2023-01-04T10:34:22.959Z,7.89
2023-01-04T10:36:52.652Z,7.92
2023-01-04T10:39:32.093Z,7.97
2023-01-04T10:42:34.130Z,8.02
2023-01-04T10:45:34.531Z,8.05
2023-01-04T10:48:11.850Z,8.10
2023-01-04T10:51:05.164Z,8.16
2023-01-04T10:53:41.686Z,8.19
2023-01-04T10:56:41.526Z,8.24
2023-01-04T10:59:13.126Z,8.27
2023-01-04T11:02:20.092Z,8.31
2023-01-04T11:04:54.711Z,8.31
2023-01-04T11:07:33.276Z,8.29
2023-01-04T11:10:08.345Z,8.28
2023-01-04T11:12:36.341Z,8.27
2023-01-04T11:15:05.078Z,8.25
2023-01-04T11:17:33.721Z,8.26
2023-01-04T11:20:01.667Z,8.28
2023-01-04T11:22:38.351Z,8.29
2023-01-04T11:28:19.184Z,8.31
2023-01-04T11:31:11.328Z,8.30
2023-01-04T11:34:00.539Z,8.31
2023-01-04T11:36:37.464Z,8.29
2023-01-04T11:39:27.134Z,8.31
2023-01-04T11:42:06.106Z,8.40
2023-01-04T11:44:36.310Z,8.46
2023-01-04T11:47:18.380Z,8.49
2023-01-04T11:49:47.262Z,8.54
2023-01-04T11:52:37.710Z,8.58
2023-01-04T11:55:25.295Z,8.69
2023-01-04T11:58:12.297Z,8.75
2023-01-04T12:00:50.797Z,8.82
2023-01-04T12:03:29.919Z,8.84
2023-01-04T12:05:59.666Z,8.86
2023-01-04T12:08:35.204Z,8.89
2023-01-04T12:11:05.411Z,8.93
2023-01-04T12:13:35.140Z,8.95
2023-01-04T12:16:19.463Z,8.96
2023-01-04T12:18:47.800Z,8.98
2023-01-04T12:21:20.998Z,8.97
2023-01-04T12:23:49.479Z,8.95
2023-01-04T12:26:18.880Z,8.97
2023-01-04T12:29:11.226Z,8.97
2023-01-04T12:31:39.120Z,8.97
2023-01-04T12:34:44.109Z,8.96
2023-01-04T12:37:32.984Z,8.97
2023-01-04T12:40:00.739Z,9.01
2023-01-04T12:42:28.475Z,9.01
2023-01-04T12:44:56.122Z,9.01
2023-01-04T12:47:48.286Z,8.98
2023-01-04T12:50:20.594Z,9.04
2023-01-04T12:55:44.585Z,9.13
2023-01-04T13:01:30.946Z,9.14
2023-01-04T13:04:06.385Z,9.13
2023-01-04T13:06:43.630Z,9.07
2023-01-04T13:09:24.623Z,9.05
2023-01-04T13:12:14.733Z,9.07
2023-01-04T13:14:50.754Z,9.06
2023-01-04T13:17:21.753Z,9.06
2023-01-04T13:19:50.144Z,9.05
2023-01-04T13:22:29.866Z,9.02
2023-01-04T13:25:00.422Z,9.07
2023-01-04T13:27:28.969Z,9.04
2023-01-04T13:29:56.836Z,9.02
2023-01-04T13:32:24.559Z,9.02
2023-01-04T13:34:56.776Z,9.03
2023-01-04T13:37:38.601Z,9.03
2023-01-04T13:40:28.029Z,9.04
2023-01-04T13:43:17.888Z,9.08
2023-01-04T13:46:22.787Z,9.08
2023-01-04T13:48:54.409Z,9.10
2023-01-04T13:51:38.669Z,9.11
2023-01-04T13:54:28.940Z,9.12
2023-01-04T13:57:10.502Z,9.13
2023-01-04T13:59:38.689Z,9.12
2023-01-04T14:02:20.709Z,9.11
2023-01-04T14:04:50.845Z,9.08
2023-01-04T14:07:25.957Z,9.07
2023-01-04T14:09:57.603Z,9.07
2023-01-04T14:12:28.632Z,9.10
2023-01-04T14:14:59.507Z,9.10
2023-01-04T14:17:49.224Z,9.11
2023-01-04T14:20:16.859Z,9.11
2023-01-04T14:22:47.245Z,9.06
2023-01-04T14:25:39.156Z,9.10
2023-01-04T14:28:30.943Z,9.05
2023-01-04T14:31:19.845Z,9.05
2023-01-04T14:33:50.833Z,9.04
2023-01-04T14:36:28.140Z,9.05
2023-01-04T14:39:07.910Z,9.05
2023-01-04T14:41:53.255Z,9.05
2023-01-04T14:44:27.934Z,9.04
2023-01-04T14:46:57.452Z,8.97
2023-01-04T14:49:28.115Z,9.00
2023-01-04T14:52:12.218Z,8.98
2023-01-04T14:54:40.875Z,9.00
2023-01-04T14:57:10.495Z,9.00
2023-01-04T14:59:38.455Z,9.01
2023-01-04T15:02:06.256Z,9.04
2023-01-04T15:04:34.070Z,9.04
2023-01-04T15:07:02.011Z,9.04
2023-01-04T15:09:31.509Z,9.05
2023-01-04T15:11:59.956Z,9.02
2023-01-04T15:14:27.762Z,9.01
2023-01-04T15:16:55.479Z,9.01
2023-01-04T15:19:23.211Z,8.98
2023-01-04T15:21:50.998Z,8.98
2023-01-04T15:24:18.733Z,8.94
2023-01-04T15:26:46.540Z,8.94
2023-01-04T15:29:14.415Z,8.94
2023-01-04T15:31:44.654Z,8.93
2023-01-04T15:34:14.227Z,8.90
2023-01-04T15:36:42.052Z,8.90
2023-01-04T15:39:13.609Z,8.89
2023-01-04T15:41:59.941Z,8.85
2023-01-04T15:44:27.877Z,8.85
2023-01-04T15:46:55.899Z,8.87
2023-01-04T15:49:23.700Z,8.86
2023-01-04T15:51:51.912Z,8.86
2023-01-04T15:54:19.747Z,8.83
2023-01-04T15:57:13.807Z,8.80
2023-01-04T15:59:42.109Z,8.79
2023-01-04T16:02:12.498Z,8.79
2023-01-04T16:04:43.270Z,8.76
2023-01-04T16:07:10.922Z,8.78
2023-01-04T16:09:39.055Z,8.76
2023-01-04T16:12:25.930Z,8.76
2023-01-04T16:14:53.957Z,8.77
2023-01-04T16:17:21.769Z,8.76
2023-01-04T16:19:49.604Z,8.77
2023-01-04T16:22:17.356Z,8.78
2023-01-04T16:25:09.960Z,8.79
2023-01-04T16:27:35.564Z,8.79
2023-01-04T16:30:05.066Z,8.82
2023-01-04T16:32:45.517Z,8.83
2023-01-04T16:35:13.472Z,8.82
2023-01-04T16:37:41.363Z,8.85
2023-01-04T16:40:10.104Z,8.86
2023-01-04T16:42:41.201Z,8.87
2023-01-04T16:45:35.172Z,8.87
2023-01-04T16:48:02.885Z,8.89
2023-01-04T16:50:30.576Z,8.89
2023-01-04T16:52:59.723Z,8.90
2023-01-04T16:58:44.856Z,8.91
2023-01-04T17:01:20.777Z,8.92
2023-01-04T17:03:49.362Z,8.95
2023-01-04T17:06:21.133Z,8.92
2023-01-04T17:08:51.321Z,8.95
2023-01-04T17:14:15.350Z,8.96
2023-01-04T17:16:43.473Z,8.95
2023-01-04T17:22:46.051Z,9.01
2023-01-04T17:25:13.819Z,9.02
2023-01-04T17:27:41.611Z,9.00
2023-01-04T17:30:10.187Z,9.01
2023-01-04T17:32:40.089Z,9.00
2023-01-04T17:35:08.074Z,8.97
2023-01-04T17:37:35.773Z,8.98
2023-01-04T17:40:04.375Z,8.96
2023-01-04T17:42:34.297Z,8.93
2023-01-04T17:45:02.065Z,8.92
2023-01-04T17:47:32.467Z,8.88
2023-01-04T17:50:00.162Z,8.87
2023-01-04T17:52:33.388Z,8.87
2023-01-04T17:55:24.627Z,8.85
2023-01-04T17:57:52.308Z,8.83
2023-01-04T18:00:20.314Z,8.83
2023-01-04T18:02:48.231Z,8.80
2023-01-04T18:05:16.109Z,8.78
2023-01-04T18:07:43.789Z,8.77
2023-01-04T18:10:21.392Z,8.79
2023-01-04T18:13:00.994Z,8.80
2023-01-04T18:15:28.652Z,8.83
2023-01-04T18:17:56.342Z,8.84
2023-01-04T18:20:25.468Z,8.83
2023-01-04T18:22:53.611Z,8.87
2023-01-04T18:25:21.543Z,8.88
2023-01-04T18:27:49.263Z,8.87
2023-01-04T18:30:17.144Z,8.87
2023-01-04T18:32:44.926Z,8.91
2023-01-04T18:35:12.715Z,8.92
2023-01-04T18:37:40.631Z,8.97
2023-01-04T18:40:08.984Z,9.01
2023-01-04T18:42:36.947Z,9.05
2023-01-04T18:45:08.151Z,9.10
2023-01-04T18:47:36.263Z,9.13
2023-01-04T18:50:06.928Z,9.17
2023-01-04T18:52:41.033Z,9.18
2023-01-04T18:55:12.085Z,9.21
2023-01-04T18:57:46.158Z,9.21
2023-01-04T19:00:14.703Z,9.22
2023-01-04T19:05:32.634Z,9.25
2023-01-04T19:08:00.356Z,9.26
2023-01-04T19:10:28.173Z,9.27
2023-01-04T19:12:55.885Z,9.28
2023-01-04T19:15:25.142Z,9.29
2023-01-04T19:18:19.059Z,9.29
2023-01-04T19:20:47.078Z,9.28
2023-01-04T19:23:14.675Z,9.29
2023-01-04T19:25:42.731Z,9.31
2023-01-04T19:28:13.165Z,9.31
2023-01-04T19:30:42.533Z,9.33
2023-01-04T19:36:44.095Z,9.33
2023-01-04T19:39:11.896Z,9.38
2023-01-04T19:41:39.592Z,9.39
2023-01-04T19:44:09.903Z,9.41
2023-01-04T19:46:41.896Z,9.41
2023-01-04T19:49:15.137Z,9.44
2023-01-04T19:51:45.623Z,9.45
2023-01-04T19:54:18.716Z,9.51
2023-01-04T19:56:51.282Z,9.51
2023-01-04T19:59:19.001Z,9.54
2023-01-04T20:01:47.031Z,9.57
2023-01-04T20:07:45.562Z,9.63
2023-01-04T20:10:14.638Z,9.67
2023-01-04T20:12:42.460Z,9.70
2023-01-04T20:15:11.541Z,9.75
2023-01-04T20:17:39.276Z,9.75
2023-01-04T20:23:17.675Z,9.81
2023-01-04T20:25:51.686Z,9.82
2023-01-04T20:28:21.937Z,9.85
2023-01-04T20:30:49.821Z,9.86
2023-01-04T20:33:17.686Z,9.90
2023-01-04T20:35:45.993Z,9.91
2023-01-04T20:38:13.696Z,9.94
2023-01-04T20:40:41.901Z,9.95
2023-01-04T20:43:29.253Z,9.99
2023-01-04T20:46:12.325Z,10.02
2023-01-04T20:48:40.896Z,10.03
2023-01-04T20:51:19.067Z,10.05
2023-01-04T20:53:47.266Z,10.05
2023-01-04T20:56:26.923Z,10.10
2023-01-04T20:58:55.566Z,10.11
2023-01-04T21:01:23.650Z,10.10
2023-01-04T21:03:51.580Z,10.13
2023-01-04T21:06:21.344Z,10.13
2023-01-04T21:08:51.469Z,10.16
2023-01-04T21:11:20.106Z,10.17
2023-01-04T21:13:48.918Z,10.19
2023-01-04T21:16:17.138Z,10.19
2023-01-04T21:18:44.884Z,10.18
2023-01-04T21:21:17.602Z,10.21
2023-01-04T21:23:54.572Z,10.21
2023-01-04T21:26:25.508Z,10.23
2023-01-04T21:28:53.234Z,10.23
2023-01-04T21:31:29.462Z,10.26
2023-01-04T21:33:57.208Z,10.25
2023-01-04T21:36:28.753Z,10.24
2023-01-04T21:38:58.464Z,10.27
2023-01-04T21:41:27.396Z,10.30
2023-01-04T21:43:57.645Z,10.30
2023-01-04T21:46:27.088Z,10.29
2023-01-04T21:48:59.192Z,10.29
2023-01-04T21:51:27.124Z,10.29
2023-01-04T21:53:55.255Z,10.28
2023-01-04T21:56:25.426Z,10.28
2023-01-04T21:58:56.203Z,10.28
2023-01-04T22:01:34.564Z,10.28
2023-01-04T22:04:03.124Z,10.27
2023-01-04T22:10:02.969Z,10.25
2023-01-04T22:12:39.750Z,10.23
2023-01-04T22:15:10.756Z,10.23
2023-01-04T22:17:42.226Z,10.21
2023-01-04T22:20:17.799Z,10.20
2023-01-04T22:22:46.689Z,10.18
2023-01-04T22:25:39.339Z,10.18
2023-01-04T22:28:15.701Z,10.19
2023-01-04T22:31:00.065Z,10.18
2023-01-04T22:33:31.705Z,10.17
2023-01-04T22:36:06.646Z,10.17
2023-01-04T22:39:14.240Z,10.18
2023-01-04T22:41:56.932Z,10.19
2023-01-04T22:44:35.255Z,10.22
2023-01-04T22:47:05.722Z,10.18
2023-01-04T22:50:13.437Z,10.23
2023-01-04T22:52:43.602Z,10.22
2023-01-04T22:55:15.032Z,10.22
2023-01-04T22:57:44.720Z,10.19
2023-01-04T23:00:13.336Z,10.15
2023-01-04T23:02:41.476Z,10.14
2023-01-04T23:05:09.604Z,10.10
2023-01-04T23:07:37.283Z,10.11
2023-01-04T23:10:05.222Z,10.09
2023-01-04T23:12:35.755Z,10.09
2023-01-04T23:15:04.858Z,10.08
2023-01-04T23:17:32.636Z,10.05
2023-01-04T23:20:10.503Z,10.07
2023-01-04T23:22:38.544Z,10.05
2023-01-04T23:25:06.682Z,10.07
2023-01-04T23:27:34.363Z,10.07
2023-01-04T23:30:02.199Z,10.08
2023-01-04T23:32:30.631Z,10.07
2023-01-04T23:34:58.444Z,10.05
2023-01-04T23:37:27.005Z,10.04
2023-01-04T23:39:54.716Z,10.08
2023-01-04T23:42:22.366Z,10.05
2023-01-04T23:44:50.042Z,10.06
2023-01-04T23:47:17.670Z,10.07
2023-01-04T23:49:47.057Z,10.05
2023-01-04T23:52:14.751Z,10.05
2023-01-04T23:54:42.429Z,10.04
2023-01-04T23:57:10.085Z,10.04
2023-01-04T23:59:37.922Z,10.00
